Time;durP1;ratioP1;P1;durP2;ratioP2;P2;SDS_P1;SDS_P2;PMS_P1;PMS_P2;Temp;Humidity;BMP_temperature;BMP_pressure;BME280_temperature;BME280_humidity;BME280_pressure;Samples;Min_cycle;Max_cycle;Signal;HPM_P1;HPM_P2
2021/11/08 00:20:55;;;;;;;2.97;2.20;;;;;;;;;;4302683;33;20590;-59
2021/11/08 00:23:23;;;;;;;3.55;2.55;;;;;;;;;;4298646;33;20119;-59
2021/11/08 00:25:49;;;;;;;3.67;2.45;;;;;;;;;;4290449;33;20455;-60
2021/11/08 00:28:17;;;;;;;6.87;2.65;;;;;;;;;;4279050;33;20104;-60
2021/11/08 00:30:43;;;;;;;3.25;2.30;;;;;;;;;;4305215;33;20104;-61
2021/11/08 00:33:15;;;;;;;2.85;2.20;;;;;;;;;;4304858;33;20143;-61
2021/11/08 00:35:42;;;;;;;3.55;2.47;;;;;;;;;;4279630;33;20101;-62
2021/11/08 00:38:08;;;;;;;4.20;2.97;;;;;;;;;;4294228;33;20135;-62
2021/11/08 00:40:35;;;;;;;6.70;3.55;;;;;;;;;;4289724;33;20111;-61
2021/11/08 00:43:01;;;;;;;5.00;2.55;;;;;;;;;;4289857;33;20122;-62
2021/11/08 00:45:26;;;;;;;6.50;2.42;;;;;;;;;;4289983;33;20523;-61
2021/11/08 00:47:55;;;;;;;3.95;2.53;;;;;;;;;;4288350;33;20132;-61
2021/11/08 00:50:21;;;;;;;2.80;2.35;;;;;;;;;;4289732;33;20104;-61
2021/11/08 00:52:48;;;;;;;3.90;2.55;;;;;;;;;;4276735;33;20134;-62
2021/11/08 00:55:15;;;;;;;3.50;2.50;;;;;;;;;;4300466;33;20436;-62
2021/11/08 00:57:44;;;;;;;3.20;2.47;;;;;;;;;;4304274;33;20098;-62
2021/11/08 01:00:12;;;;;;;4.07;2.37;;;;;;;;;;4304336;33;20124;-61
2021/11/08 01:02:39;;;;;;;3.75;2.62;;;;;;;;;;4290545;33;20123;-61
2021/11/08 01:05:06;;;;;;;3.37;2.58;;;;;;;;;;4302983;33;20103;-60
2021/11/08 01:07:33;;;;;;;2.95;2.45;;;;;;;;;;4290663;33;20554;-62
2021/11/08 01:09:59;;;;;;;5.25;2.60;;;;;;;;;;4290628;33;20191;-62
2021/11/08 01:12:25;;;;;;;4.57;2.55;;;;;;;;;;4303963;33;20110;-61
2021/11/08 01:14:53;;;;;;;3.35;2.97;;;;;;;;;;4303916;33;20110;-62
2021/11/08 01:17:20;;;;;;;4.65;3.30;;;;;;;;;;4303644;33;20526;-62
2021/11/08 01:19:46;;;;;;;3.25;2.40;;;;;;;;;;4289422;33;20173;-62
2021/11/08 01:22:20;;;;;;;4.05;2.75;;;;;;;;;;4289506;33;20174;-62
2021/11/08 01:24:56;;;;;;;5.55;2.70;;;;;;;;;;4289339;33;20119;-62
2021/11/08 01:27:35;;;;;;;3.37;2.33;;;;;;;;;;4289425;33;20111;-62
2021/11/08 01:30:05;;;;;;;2.85;2.55;;;;;;;;;;4276815;33;20217;-62
2021/11/08 01:32:31;;;;;;;7.32;4.00;;;;;;;;;;4289308;33;20584;-61
2021/11/08 01:34:58;;;;;;;4.50;3.22;;;;;;;;;;4289297;33;20119;-62
2021/11/08 01:37:24;;;;;;;3.87;3.12;;;;;;;;;;4289161;33;20145;-62
2021/11/08 01:39:51;;;;;;;3.60;2.75;;;;;;;;;;4289252;33;20620;-62
2021/11/08 01:42:17;;;;;;;3.75;2.80;;;;;;;;;;4289241;33;20107;-62
2021/11/08 01:44:43;;;;;;;4.15;2.90;;;;;;;;;;4289127;33;20667;-62
2021/11/08 01:47:09;;;;;;;4.47;2.78;;;;;;;;;;4289321;33;20182;-62
2021/11/08 01:49:39;;;;;;;3.70;2.72;;;;;;;;;;4289320;33;20145;-62
2021/11/08 01:52:06;;;;;;;5.00;2.55;;;;;;;;;;4289177;33;20112;-61
2021/11/08 01:54:32;;;;;;;9.00;4.30;;;;;;;;;;4293724;33;20724;-62
2021/11/08 01:56:59;;;;;;;5.95;2.70;;;;;;;;;;4303573;33;20111;-61
2021/11/08 01:59:25;;;;;;;3.50;3.00;;;;;;;;;;4302309;33;20492;-61
2021/11/08 02:01:51;;;;;;;3.30;2.53;;;;;;;;;;4303727;33;20182;-61
2021/11/08 02:04:20;;;;;;;4.70;2.83;;;;;;;;;;4303483;33;20598;-62
2021/11/08 02:06:46;;;;;;;5.95;2.95;;;;;;;;;;4287184;33;20523;-61
2021/11/08 02:09:12;;;;;;;5.72;2.78;;;;;;;;;;4288868;33;20115;-62
2021/11/08 02:11:38;;;;;;;4.60;2.70;;;;;;;;;;4289007;33;20202;-62
2021/11/08 02:14:04;;;;;;;3.55;2.75;;;;;;;;;;4289058;33;20128;-62
2021/11/08 02:16:30;;;;;;;3.80;3.10;;;;;;;;;;4287573;33;20225;-62
2021/11/08 02:18:57;;;;;;;3.10;2.47;;;;;;;;;;4288899;33;20636;-62
2021/11/08 02:21:24;;;;;;;3.65;2.58;;;;;;;;;;4289020;33;20470;-62
2021/11/08 02:23:50;;;;;;;2.87;2.55;;;;;;;;;;4288963;33;20831;-65
2021/11/08 02:26:17;;;;;;;4.35;2.90;;;;;;;;;;4288999;33;20103;-62
2021/11/08 02:28:48;;;;;;;3.85;3.00;;;;;;;;;;4289765;33;20541;-62
2021/11/08 02:31:17;;;;;;;5.45;2.55;;;;;;;;;;4291143;33;20122;-61
2021/11/08 02:33:46;;;;;;;6.75;3.40;;;;;;;;;;4291030;33;20230;-63
2021/11/08 02:36:13;;;;;;;5.70;3.22;;;;;;;;;;4290762;33;20131;-62
2021/11/08 02:38:47;;;;;;;6.10;2.70;;;;;;;;;;4291161;33;20419;-63
2021/11/08 02:41:15;;;;;;;3.70;2.70;;;;;;;;;;4277472;33;20094;-62
2021/11/08 02:43:41;;;;;;;5.18;2.70;;;;;;;;;;4290686;33;20168;-62
2021/11/08 02:46:10;;;;;;;4.65;2.70;;;;;;;;;;4290845;33;20131;-61
2021/11/08 02:48:36;;;;;;;4.95;2.85;;;;;;;;;;4290725;33;20120;-67
2021/11/08 02:51:08;;;;;;;3.53;2.72;;;;;;;;;;4277308;33;20123;-61
2021/11/08 02:53:35;;;;;;;3.92;2.70;;;;;;;;;;4290693;33;20096;-60
2021/11/08 02:56:02;;;;;;;3.80;2.40;;;;;;;;;;4290676;33;20104;-61
2021/11/08 02:58:29;;;;;;;3.62;2.42;;;;;;;;;;4290856;33;20129;-64
2021/11/08 03:00:55;;;;;;;4.75;2.90;;;;;;;;;;4290983;33;20103;-60
2021/11/08 03:03:28;;;;;;;2.92;2.40;;;;;;;;;;4291437;33;20944;-61
2021/11/08 03:06:00;;;;;;;4.68;3.12;;;;;;;;;;4291061;33;20110;-61
2021/11/08 03:08:25;;;;;;;4.45;2.60;;;;;;;;;;4276711;33;20139;-61
2021/11/08 03:10:56;;;;;;;6.12;2.72;;;;;;;;;;4288832;33;20516;-62
2021/11/08 03:13:22;;;;;;;3.22;2.33;;;;;;;;;;4288511;33;20629;-62
2021/11/08 03:16:03;;;;;;;3.25;2.53;;;;;;;;;;4288400;33;20184;-61
2021/11/08 03:18:33;;;;;;;2.83;2.53;;;;;;;;;;4288205;33;20127;-61
2021/11/08 03:20:59;;;;;;;3.03;2.30;;;;;;;;;;4288271;33;20124;-64
2021/11/08 03:23:26;;;;;;;2.92;2.42;;;;;;;;;;4288578;33;20135;-66
2021/11/08 03:28:24;;;;;;;2.70;2.40;;;;;;;;;;4288382;33;20134;-62
2021/11/08 03:30:51;;;;;;;2.92;2.37;;;;;;;;;;4288277;33;20111;-61
2021/11/08 03:33:17;;;;;;;11.75;3.03;;;;;;;;;;4288572;33;20112;-61
2021/11/08 03:35:43;;;;;;;8.90;2.80;;;;;;;;;;4288097;33;20161;-61
2021/11/08 03:38:10;;;;;;;5.25;2.53;;;;;;;;;;4288450;33;20135;-62
2021/11/08 03:40:38;;;;;;;3.12;2.70;;;;;;;;;;4289324;33;20103;-62
2021/11/08 03:43:06;;;;;;;5.25;2.62;;;;;;;;;;4290409;33;20545;-62
2021/11/08 03:45:33;;;;;;;4.60;3.12;;;;;;;;;;4276736;33;20119;-62
2021/11/08 03:47:59;;;;;;;3.30;3.00;;;;;;;;;;4290268;33;20594;-62
2021/11/08 03:50:25;;;;;;;2.87;2.42;;;;;;;;;;4289862;33;20114;-63
2021/11/08 03:52:51;;;;;;;3.28;2.95;;;;;;;;;;4290098;33;20100;-62
2021/11/08 03:55:19;;;;;;;3.12;2.83;;;;;;;;;;4290247;33;20540;-62
2021/11/08 03:57:46;;;;;;;4.47;3.47;;;;;;;;;;4290117;33;20130;-62
2021/11/08 04:00:13;;;;;;;4.68;2.95;;;;;;;;;;4290135;33;20095;-62
2021/11/08 04:02:39;;;;;;;3.47;3.00;;;;;;;;;;4276637;33;20450;-62
2021/11/08 04:05:06;;;;;;;4.05;3.20;;;;;;;;;;4290387;33;20103;-62
2021/11/08 04:07:32;;;;;;;4.15;3.00;;;;;;;;;;4290197;33;20176;-62
2021/11/08 04:09:59;;;;;;;3.28;2.78;;;;;;;;;;4290177;33;20522;-62
2021/11/08 04:12:27;;;;;;;3.50;2.92;;;;;;;;;;4290126;33;20594;-63
2021/11/08 04:14:53;;;;;;;3.42;2.92;;;;;;;;;;4290108;33;20092;-63
2021/11/08 04:17:21;;;;;;;4.28;3.37;;;;;;;;;;4290008;33;20210;-63
2021/11/08 04:19:47;;;;;;;4.15;3.15;;;;;;;;;;4289958;33;20115;-63
2021/11/08 04:22:13;;;;;;;4.25;3.60;;;;;;;;;;4289995;33;20115;-62
2021/11/08 04:24:42;;;;;;;5.65;3.53;;;;;;;;;;4290057;33;20113;-62
2021/11/08 04:27:09;;;;;;;3.85;3.50;;;;;;;;;;4290294;33;20187;-61
2021/11/08 04:29:35;;;;;;;4.35;3.55;;;;;;;;;;4290263;33;20112;-62
2021/11/08 04:32:01;;;;;;;5.12;3.78;;;;;;;;;;4289995;33;20135;-62
2021/11/08 04:34:32;;;;;;;6.15;4.07;;;;;;;;;;4289945;33;20156;-61
2021/11/08 04:42:49;;;;;;;3.72;3.40;;;;;;;;;;4289874;33;20115;-62
2021/11/08 04:45:29;;;;;;;4.57;3.70;;;;;;;;;;4276500;33;20099;-61
2021/11/08 04:48:18;;;;;;;3.70;3.35;;;;;;;;;;4289932;33;20114;-62
2021/11/08 05:31:40;;;;;;;4.47;3.33;;;;;;;;;;4265968;33;20104;-63
2021/11/08 05:34:05;;;;;;;4.22;3.33;;;;;;;;;;4275914;33;20567;-63
2021/11/08 05:36:31;;;;;;;4.05;3.65;;;;;;;;;;4289160;33;20115;-63
2021/11/08 05:38:57;;;;;;;9.07;3.67;;;;;;;;;;4289388;33;20241;-64
2021/11/08 05:41:23;;;;;;;3.78;3.47;;;;;;;;;;4289232;33;20108;-63
2021/11/08 05:43:49;;;;;;;6.05;4.50;;;;;;;;;;4289493;33;20093;-63
2021/11/08 05:46:15;;;;;;;10.38;7.60;;;;;;;;;;4289172;33;20111;-63
2021/11/08 05:48:42;;;;;;;5.47;3.30;;;;;;;;;;4289312;33;20487;-63
2021/11/08 05:51:08;;;;;;;5.28;3.78;;;;;;;;;;4289287;33;20100;-63
2021/11/08 05:53:34;;;;;;;3.87;3.40;;;;;;;;;;4276071;33;20468;-63
2021/11/08 06:50:17;;;;;;;4.82;3.50;;;;;;;;;;4287381;33;20108;-63
2021/11/08 06:52:50;;;;;;;4.07;3.70;;;;;;;;;;4288503;33;20178;-63
2021/11/08 06:55:16;;;;;;;4.03;3.55;;;;;;;;;;4288506;33;20110;-62
2021/11/08 06:57:56;;;;;;;4.00;3.60;;;;;;;;;;4288534;33;20534;-63
2021/11/08 07:00:25;;;;;;;4.12;3.60;;;;;;;;;;4288469;33;20125;-62
2021/11/08 07:02:50;;;;;;;4.72;3.55;;;;;;;;;;4275107;33;20519;-63
2021/11/08 07:05:16;;;;;;;5.47;3.95;;;;;;;;;;4288241;33;20103;-63
2021/11/08 07:07:42;;;;;;;8.05;4.30;;;;;;;;;;4288287;33;20127;-63
2021/11/08 07:10:08;;;;;;;5.18;4.20;;;;;;;;;;4274956;33;20107;-63
2021/11/08 07:12:35;;;;;;;6.80;4.00;;;;;;;;;;4288306;33;20518;-63
2021/11/08 07:15:01;;;;;;;7.07;5.43;;;;;;;;;;4289465;33;20091;-63
2021/11/08 07:17:27;;;;;;;9.52;6.20;;;;;;;;;;4290387;33;20119;-63
2021/11/08 07:19:53;;;;;;;5.28;4.78;;;;;;;;;;4290670;33;20088;-61
2021/11/08 07:22:19;;;;;;;5.55;4.20;;;;;;;;;;4290394;33;20085;-61
2021/11/08 07:24:46;;;;;;;7.55;6.03;;;;;;;;;;4290418;33;20117;-60
2021/11/08 07:27:13;;;;;;;9.02;6.37;;;;;;;;;;4290517;33;20171;-64
2021/11/08 07:29:38;;;;;;;8.48;6.35;;;;;;;;;;4290823;33;20115;-64
2021/11/08 07:32:05;;;;;;;6.90;6.20;;;;;;;;;;4290738;33;20116;-65
2021/11/08 07:34:31;;;;;;;10.55;6.68;;;;;;;;;;4290429;33;20217;-65
2021/11/08 07:36:57;;;;;;;10.90;6.65;;;;;;;;;;4290255;33;20766;-64
2021/11/08 07:39:23;;;;;;;8.65;6.50;;;;;;;;;;4290357;33;20099;-60
2021/11/08 07:41:49;;;;;;;6.78;5.90;;;;;;;;;;4290218;33;20127;-62
2021/11/08 07:44:15;;;;;;;5.72;4.85;;;;;;;;;;4290164;33;20099;-60
2021/11/08 07:46:41;;;;;;;5.72;5.12;;;;;;;;;;4290308;33;20317;-60
2021/11/08 07:49:07;;;;;;;6.68;5.97;;;;;;;;;;4290051;33;20096;-60
2021/11/08 07:51:33;;;;;;;6.62;5.95;;;;;;;;;;4290172;33;20483;-60
2021/11/08 07:53:59;;;;;;;9.52;5.72;;;;;;;;;;4290085;33;20518;-61
2021/11/08 07:56:25;;;;;;;7.03;4.68;;;;;;;;;;4289995;33;20588;-61
2021/11/08 07:58:51;;;;;;;7.60;6.47;;;;;;;;;;4290064;33;20144;-61
2021/11/08 08:01:17;;;;;;;6.85;6.10;;;;;;;;;;4276648;33;20519;-62
2021/11/08 08:03:45;;;;;;;7.03;6.32;;;;;;;;;;4289948;33;20534;-60
2021/11/08 08:06:11;;;;;;;8.77;7.80;;;;;;;;;;4276980;33;20498;-61
2021/11/08 08:08:37;;;;;;;8.65;7.75;;;;;;;;;;4265071;33;20135;-61
2021/11/08 08:11:04;;;;;;;11.55;9.02;;;;;;;;;;4290286;33;20108;-61
2021/11/08 08:13:30;;;;;;;12.00;7.85;;;;;;;;;;4276736;33;20198;-61
2021/11/08 08:15:59;;;;;;;8.05;6.70;;;;;;;;;;4290210;33;20108;-60
2021/11/08 08:18:26;;;;;;;9.05;7.70;;;;;;;;;;4289957;33;20096;-60
2021/11/08 08:20:52;;;;;;;8.98;8.02;;;;;;;;;;4276543;33;20106;-60
2021/11/08 08:23:18;;;;;;;8.55;7.72;;;;;;;;;;4290142;33;20235;-61
2021/11/08 08:25:44;;;;;;;10.50;7.65;;;;;;;;;;4288857;33;20554;-63
2021/11/08 08:28:11;;;;;;;9.57;7.93;;;;;;;;;;4289967;33;20107;-61
2021/11/08 08:30:37;;;;;;;8.32;7.53;;;;;;;;;;4289880;33;20532;-60
2021/11/08 08:33:03;;;;;;;9.02;7.62;;;;;;;;;;4264977;33;20112;-60
2021/11/08 08:35:29;;;;;;;8.10;6.72;;;;;;;;;;4290101;33;20570;-60
2021/11/08 08:37:55;;;;;;;8.23;7.43;;;;;;;;;;4289740;33;20195;-61
2021/11/08 08:40:21;;;;;;;10.27;9.13;;;;;;;;;;4289980;33;20132;-62
2021/11/08 08:42:47;;;;;;;10.52;9.43;;;;;;;;;;4289688;33;20100;-62
2021/11/08 08:45:13;;;;;;;13.13;10.90;;;;;;;;;;4276396;33;20096;-62
2021/11/08 08:47:39;;;;;;;13.05;9.80;;;;;;;;;;4289815;33;20195;-61
2021/11/08 08:50:05;;;;;;;13.55;10.27;;;;;;;;;;4289772;33;20198;-62
2021/11/08 08:52:31;;;;;;;14.05;11.80;;;;;;;;;;4289758;33;20099;-60
2021/11/08 08:54:57;;;;;;;12.32;10.75;;;;;;;;;;4290146;33;20229;-61
2021/11/08 08:57:23;;;;;;;12.40;11.10;;;;;;;;;;4276521;33;20151;-61
2021/11/08 08:59:49;;;;;;;13.02;11.73;;;;;;;;;;4276444;33;20464;-62
2021/11/08 09:02:14;;;;;;;15.82;11.63;;;;;;;;;;4289807;33;20209;-62
2021/11/08 09:04:40;;;;;;;12.00;10.80;;;;;;;;;;4288580;33;20468;-58
2021/11/08 09:07:07;;;;;;;13.50;11.98;;;;;;;;;;4272075;33;20255;-59
2021/11/08 09:09:35;;;;;;;13.73;10.77;;;;;;;;;;4274940;33;20461;-60
2021/11/08 09:12:01;;;;;;;12.82;11.00;;;;;;;;;;4287814;33;20194;-60
2021/11/08 09:14:30;;;;;;;11.48;9.90;;;;;;;;;;4288132;33;20511;-59
2021/11/08 09:16:56;;;;;;;14.30;10.63;;;;;;;;;;4289287;33;20456;-60
2021/11/08 09:19:22;;;;;;;11.90;10.15;;;;;;;;;;4289317;33;20112;-60
2021/11/08 09:21:48;;;;;;;13.77;11.45;;;;;;;;;;4275591;33;20107;-60
2021/11/08 09:24:14;;;;;;;12.05;9.82;;;;;;;;;;4288893;33;20124;-60
2021/11/08 09:26:40;;;;;;;17.80;9.82;;;;;;;;;;4289109;33;20190;-59
2021/11/08 09:29:06;;;;;;;10.65;8.65;;;;;;;;;;4289379;33;20092;-60
2021/11/08 09:31:32;;;;;;;12.02;8.85;;;;;;;;;;4289214;33;20124;-61
2021/11/08 09:34:03;;;;;;;14.02;8.07;;;;;;;;;;4288967;33;20519;-59
2021/11/08 09:36:34;;;;;;;10.88;7.72;;;;;;;;;;4287043;33;20477;-59
2021/11/08 09:39:00;;;;;;;10.75;6.72;;;;;;;;;;4288930;33;20111;-59
2021/11/08 09:41:37;;;;;;;11.12;7.20;;;;;;;;;;4288956;33;20102;-59
2021/11/08 09:44:05;;;;;;;14.25;7.97;;;;;;;;;;4289350;33;20112;-61
2021/11/08 09:46:31;;;;;;;8.43;7.35;;;;;;;;;;4288967;33;20118;-59
2021/11/08 09:48:59;;;;;;;13.75;7.80;;;;;;;;;;4288687;33;20120;-59
2021/11/08 09:51:25;;;;;;;8.05;6.30;;;;;;;;;;4288673;33;20478;-59
2021/11/08 09:53:51;;;;;;;10.77;7.25;;;;;;;;;;4274831;33;20278;-59
2021/11/08 09:56:17;;;;;;;9.82;7.43;;;;;;;;;;4275714;33;20507;-65
2021/11/08 09:58:43;;;;;;;7.72;6.93;;;;;;;;;;4288857;33;20120;-60
2021/11/08 10:01:12;;;;;;;8.13;6.82;;;;;;;;;;4275055;33;20527;-60
2021/11/08 10:03:38;;;;;;;8.57;7.62;;;;;;;;;;4288796;33;20108;-60
2021/11/08 10:06:05;;;;;;;8.95;6.68;;;;;;;;;;4288943;33;20417;-60
2021/11/08 10:08:33;;;;;;;11.57;6.80;;;;;;;;;;4288899;33;20190;-60
2021/11/08 10:11:07;;;;;;;8.23;6.95;;;;;;;;;;4288624;33;20554;-60
2021/11/08 10:13:33;;;;;;;10.27;7.62;;;;;;;;;;4288593;33;20222;-59
2021/11/08 10:16:12;;;;;;;9.25;7.07;;;;;;;;;;4275381;33;20197;-60
2021/11/08 10:18:39;;;;;;;12.05;6.57;;;;;;;;;;4288733;33;20119;-60
2021/11/08 10:21:13;;;;;;;8.05;6.95;;;;;;;;;;4288424;33;20130;-62
2021/11/08 10:23:46;;;;;;;10.73;6.90;;;;;;;;;;4288508;33;20151;-62
2021/11/08 10:26:17;;;;;;;8.25;6.72;;;;;;;;;;4289084;33;20112;-62
2021/11/08 10:28:52;;;;;;;9.82;7.07;;;;;;;;;;4288965;33;20100;-62
2021/11/08 10:31:17;;;;;;;10.18;6.80;;;;;;;;;;4288724;33;20083;-62
2021/11/08 10:33:43;;;;;;;8.18;6.82;;;;;;;;;;4288837;33;21047;-62
2021/11/08 10:36:17;;;;;;;8.95;6.90;;;;;;;;;;4288655;33;20131;-61
2021/11/08 10:38:45;;;;;;;9.70;5.82;;;;;;;;;;4288711;33;20230;-63
2021/11/08 10:41:16;;;;;;;9.98;7.20;;;;;;;;;;4288641;33;20170;-62
2021/11/08 10:43:48;;;;;;;10.50;7.32;;;;;;;;;;4288641;33;20595;-62
2021/11/08 10:46:17;;;;;;;9.65;7.00;;;;;;;;;;4275265;33;20112;-61
2021/11/08 10:48:47;;;;;;;8.85;6.75;;;;;;;;;;4288798;33;20103;-61
2021/11/08 10:51:13;;;;;;;10.20;6.55;;;;;;;;;;4290977;33;20118;-61
2021/11/08 10:53:59;;;;;;;10.82;7.35;;;;;;;;;;4290783;33;20476;-61
2021/11/08 10:56:34;;;;;;;8.75;6.87;;;;;;;;;;4290934;33;20092;-61
2021/11/08 10:59:02;;;;;;;8.75;7.10;;;;;;;;;;4290863;33;20108;-61
2021/11/08 11:01:32;;;;;;;12.15;7.32;;;;;;;;;;4289351;33;20092;-62
2021/11/08 11:04:02;;;;;;;9.82;7.32;;;;;;;;;;4275996;33;20119;-62
2021/11/08 11:06:48;;;;;;;8.82;6.82;;;;;;;;;;4289379;33;20091;-61
2021/11/08 11:09:20;;;;;;;11.12;6.80;;;;;;;;;;4289187;33;20569;-62
2021/11/08 11:12:04;;;;;;;10.48;6.12;;;;;;;;;;4289468;33;20111;-62
2021/11/08 11:14:34;;;;;;;11.65;6.30;;;;;;;;;;4289229;33;20207;-62
2021/11/08 11:17:07;;;;;;;12.60;7.45;;;;;;;;;;4290472;33;20595;-62
2021/11/08 11:19:33;;;;;;;7.00;5.18;;;;;;;;;;4290388;33;20550;-62
2021/11/08 11:22:03;;;;;;;10.70;7.15;;;;;;;;;;4290355;33;20099;-63
2021/11/08 11:24:57;;;;;;;5.90;4.18;;;;;;;;;;4290425;33;20115;-61
2021/11/08 11:27:27;;;;;;;7.30;5.55;;;;;;;;;;4290427;33;20525;-61
2021/11/08 11:30:05;;;;;;;11.65;5.35;;;;;;;;;;4290480;33;20230;-62
2021/11/08 11:32:31;;;;;;;10.50;6.70;;;;;;;;;;4276949;33;20119;-63
2021/11/08 11:34:57;;;;;;;10.85;6.03;;;;;;;;;;4290611;33;20199;-62
2021/11/08 11:37:26;;;;;;;8.90;6.95;;;;;;;;;;4290170;33;20226;-62
2021/11/08 11:40:08;;;;;;;8.52;6.28;;;;;;;;;;4290367;33;20206;-62
2021/11/08 11:42:45;;;;;;;11.07;5.82;;;;;;;;;;4290374;33;20452;-62
2021/11/08 11:45:11;;;;;;;9.48;5.32;;;;;;;;;;4290311;33;20289;-61
2021/11/08 11:47:38;;;;;;;9.60;5.45;;;;;;;;;;4276876;33;20168;-61
2021/11/08 11:50:05;;;;;;;10.02;5.87;;;;;;;;;;4277214;33;20135;-62
2021/11/08 11:52:32;;;;;;;6.57;4.87;;;;;;;;;;4290066;33;20111;-61
2021/11/08 11:54:58;;;;;;;9.82;6.15;;;;;;;;;;4277343;33;20604;-62
2021/11/08 11:57:24;;;;;;;11.27;6.50;;;;;;;;;;4290005;33;20206;-62
2021/11/08 11:59:51;;;;;;;6.15;4.05;;;;;;;;;;4289953;33;20099;-61
2021/11/08 12:02:17;;;;;;;7.45;5.18;;;;;;;;;;4290266;33;20189;-60
2021/11/08 12:04:43;;;;;;;8.82;5.93;;;;;;;;;;4277052;33;20100;-61
2021/11/08 12:07:10;;;;;;;8.68;5.55;;;;;;;;;;4290033;33;20126;-64
2021/11/08 12:09:36;;;;;;;8.77;5.37;;;;;;;;;;4276941;33;20096;-61
2021/11/08 12:12:02;;;;;;;10.18;6.05;;;;;;;;;;4290062;33;20460;-60
2021/11/08 12:14:32;;;;;;;8.13;7.28;;;;;;;;;;4290039;33;20155;-60
2021/11/08 12:16:59;;;;;;;7.75;6.35;;;;;;;;;;4289916;33;20135;-61
2021/11/08 12:19:30;;;;;;;7.80;5.65;;;;;;;;;;4289894;33;20099;-60
2021/11/08 12:21:56;;;;;;;5.85;5.00;;;;;;;;;;4264632;33;20130;-60
2021/11/08 12:24:24;;;;;;;7.22;5.15;;;;;;;;;;4289872;33;20134;-60
2021/11/08 12:27:04;;;;;;;7.65;5.20;;;;;;;;;;4276934;33;20106;-60
2021/11/08 12:29:30;;;;;;;6.68;5.43;;;;;;;;;;4290124;33;20596;-60
2021/11/08 12:32:11;;;;;;;7.35;5.72;;;;;;;;;;4290108;33;20138;-60
2021/11/08 12:34:46;;;;;;;9.75;4.37;;;;;;;;;;4289748;33;20237;-61
2021/11/08 12:37:12;;;;;;;8.00;4.75;;;;;;;;;;4276497;33;20205;-62
2021/11/08 12:39:38;;;;;;;6.85;5.28;;;;;;;;;;4289824;33;20534;-62
2021/11/08 12:42:08;;;;;;;7.80;5.12;;;;;;;;;;4290003;33;20171;-61
2021/11/08 12:44:40;;;;;;;7.57;5.62;;;;;;;;;;4289761;33;20100;-62
2021/11/08 12:47:06;;;;;;;8.40;5.57;;;;;;;;;;4289966;33;20179;-62
2021/11/08 12:49:40;;;;;;;6.97;5.15;;;;;;;;;;4276309;33;20115;-62
2021/11/08 12:52:09;;;;;;;11.93;5.60;;;;;;;;;;4289685;33;20127;-61
2021/11/08 12:55:00;;;;;;;10.27;6.28;;;;;;;;;;4289588;33;20083;-60
2021/11/08 12:57:26;;;;;;;7.43;5.53;;;;;;;;;;4289572;33;20218;-60
2021/11/08 13:00:00;;;;;;;6.87;4.68;;;;;;;;;;4289745;33;20122;-60
2021/11/08 13:02:28;;;;;;;6.97;4.87;;;;;;;;;;4285839;33;20096;-60
2021/11/08 13:04:57;;;;;;;6.78;4.35;;;;;;;;;;4289466;33;20527;-60
2021/11/08 13:07:24;;;;;;;5.68;3.67;;;;;;;;;;4289097;33;20147;-60
2021/11/08 13:09:54;;;;;;;6.43;4.93;;;;;;;;;;4275955;33;20116;-59
2021/11/08 13:12:35;;;;;;;8.07;4.78;;;;;;;;;;4288803;33;20455;-60
2021/11/08 13:15:09;;;;;;;5.43;4.60;;;;;;;;;;4289218;33;20119;-60
2021/11/08 13:17:50;;;;;;;4.97;4.20;;;;;;;;;;4289098;33;20103;-60
2021/11/08 13:20:17;;;;;;;8.63;4.78;;;;;;;;;;4289431;33;20132;-60
2021/11/08 13:22:45;;;;;;;6.03;4.50;;;;;;;;;;4270886;33;20551;-60
2021/11/08 13:25:14;;;;;;;6.15;4.50;;;;;;;;;;4289151;33;20122;-60
2021/11/08 13:27:48;;;;;;;7.12;4.75;;;;;;;;;;4288867;33;20108;-60
2021/11/08 13:30:15;;;;;;;7.15;5.18;;;;;;;;;;4275563;33;20132;-60
2021/11/08 13:32:41;;;;;;;5.80;4.60;;;;;;;;;;4288874;33;20116;-61
2021/11/08 13:35:26;;;;;;;7.32;4.82;;;;;;;;;;4289430;33;20206;-61
2021/11/08 13:38:09;;;;;;;7.05;4.80;;;;;;;;;;4288917;33;20124;-59
2021/11/08 13:40:46;;;;;;;6.90;5.18;;;;;;;;;;4288947;33;20116;-59
2021/11/08 13:43:20;;;;;;;6.65;4.87;;;;;;;;;;4289023;33;20172;-59
2021/11/08 13:45:46;;;;;;;6.80;4.70;;;;;;;;;;4289116;33;20568;-61
2021/11/08 13:48:24;;;;;;;5.35;4.70;;;;;;;;;;4288889;33;20087;-60
2021/11/08 13:50:51;;;;;;;5.20;4.68;;;;;;;;;;4275522;33;20111;-61
2021/11/08 13:53:28;;;;;;;5.20;4.68;;;;;;;;;;4287913;33;20099;-60
2021/11/08 13:55:56;;;;;;;6.97;4.53;;;;;;;;;;4289113;33;20495;-60
2021/11/08 13:58:21;;;;;;;5.15;4.47;;;;;;;;;;4289063;33;20123;-60
2021/11/08 14:00:47;;;;;;;4.85;4.35;;;;;;;;;;4275391;33;20175;-59
2021/11/08 14:03:14;;;;;;;7.43;4.43;;;;;;;;;;4288317;33;20192;-60
2021/11/08 14:05:51;;;;;;;6.35;4.82;;;;;;;;;;4288696;33;20084;-61
2021/11/08 14:08:26;;;;;;;9.27;3.80;;;;;;;;;;4276043;33;20106;-60
2021/11/08 14:10:56;;;;;;;3.42;2.25;;;;;;;;;;4288943;33;20158;-66
2021/11/08 14:13:40;;;;;;;4.43;3.83;;;;;;;;;;4288829;33;20112;-66
2021/11/08 14:16:10;;;;;;;4.35;3.95;;;;;;;;;;4275719;33;20115;-61
2021/11/08 14:18:37;;;;;;;4.85;4.37;;;;;;;;;;4289072;33;20178;-62
2021/11/08 14:21:13;;;;;;;6.03;4.68;;;;;;;;;;4288760;33;20100;-62
2021/11/08 14:23:40;;;;;;;5.57;4.40;;;;;;;;;;4288849;33;20197;-63
2021/11/08 14:26:18;;;;;;;5.37;4.72;;;;;;;;;;4288780;33;20487;-63
2021/11/08 14:28:45;;;;;;;7.03;4.32;;;;;;;;;;4289000;33;20521;-67
2021/11/08 14:31:23;;;;;;;6.22;4.35;;;;;;;;;;4288862;33;20471;-66
2021/11/08 14:33:51;;;;;;;7.18;4.60;;;;;;;;;;4272711;33;20514;-63
2021/11/08 14:36:20;;;;;;;5.93;4.93;;;;;;;;;;4275746;33;20546;-63
2021/11/08 14:38:50;;;;;;;6.25;5.45;;;;;;;;;;4288456;33;20107;-62
2021/11/08 14:41:17;;;;;;;3.78;3.15;;;;;;;;;;4275103;33;20091;-61
2021/11/08 14:43:43;;;;;;;6.82;3.25;;;;;;;;;;4288257;33;20096;-62
2021/11/08 14:46:09;;;;;;;5.47;4.45;;;;;;;;;;4288518;33;20132;-62
2021/11/08 14:48:36;;;;;;;4.55;3.92;;;;;;;;;;4286920;33;20108;-63
2021/11/08 14:51:14;;;;;;;4.62;3.72;;;;;;;;;;4273774;33;20123;-63
2021/11/08 14:54:02;;;;;;;7.85;5.43;;;;;;;;;;4268692;33;20559;-62
2021/11/08 14:56:31;;;;;;;6.93;4.50;;;;;;;;;;4272851;33;20088;-61
2021/11/08 14:59:05;;;;;;;5.70;4.62;;;;;;;;;;4278351;33;20089;-68
2021/11/08 15:01:32;;;;;;;6.10;4.87;;;;;;;;;;4287706;33;20123;-65
2021/11/08 15:04:04;;;;;;;6.53;4.87;;;;;;;;;;4288062;33;20088;-64
2021/11/08 15:06:31;;;;;;;6.25;5.45;;;;;;;;;;4288281;33;20171;-64
2021/11/08 15:09:04;;;;;;;10.48;7.40;;;;;;;;;;4263118;33;20613;-62
2021/11/08 15:11:30;;;;;;;5.25;4.70;;;;;;;;;;4288094;33;20114;-62
2021/11/08 15:14:04;;;;;;;5.03;4.47;;;;;;;;;;4274531;33;20432;-63
2021/11/08 15:16:30;;;;;;;5.32;4.55;;;;;;;;;;4288100;33;20123;-61
2021/11/08 15:19:03;;;;;;;6.10;5.07;;;;;;;;;;4274919;33;20210;-61
2021/11/08 15:21:35;;;;;;;6.50;5.35;;;;;;;;;;4262698;33;20095;-62
2021/11/08 15:24:12;;;;;;;8.18;5.10;;;;;;;;;;4288103;33;20111;-62
2021/11/08 15:26:41;;;;;;;7.85;5.82;;;;;;;;;;4274502;33;20112;-61
2021/11/08 15:29:12;;;;;;;6.30;5.37;;;;;;;;;;4272433;33;20100;-62
2021/11/08 15:31:39;;;;;;;11.12;7.78;;;;;;;;;;4287992;33;20503;-62
2021/11/08 15:34:13;;;;;;;5.15;4.37;;;;;;;;;;4274361;33;20458;-62
2021/11/08 15:37:00;;;;;;;7.45;6.40;;;;;;;;;;4289740;33;20553;-61
2021/11/08 15:39:31;;;;;;;6.62;5.43;;;;;;;;;;4290017;33;20424;-62
2021/11/08 15:42:04;;;;;;;6.22;5.43;;;;;;;;;;4290108;33;20120;-62
2021/11/08 15:44:30;;;;;;;6.50;4.97;;;;;;;;;;4289788;33;20100;-61
2021/11/08 15:46:56;;;;;;;7.03;5.18;;;;;;;;;;4290130;33;20223;-62
2021/11/08 15:49:22;;;;;;;9.57;6.60;;;;;;;;;;4290112;33;20147;-67
2021/11/08 15:51:49;;;;;;;10.77;7.70;;;;;;;;;;4289216;33;20195;-65
2021/11/08 15:54:18;;;;;;;6.18;4.47;;;;;;;;;;4264183;33;20124;-65
2021/11/08 15:56:45;;;;;;;7.85;5.97;;;;;;;;;;4274331;33;20587;-64
2021/11/08 15:59:11;;;;;;;7.30;5.25;;;;;;;;;;4287052;33;20104;-64
2021/11/08 16:01:39;;;;;;;13.35;8.38;;;;;;;;;;4289954;33;20121;-65
2021/11/08 16:04:04;;;;;;;12.70;9.18;;;;;;;;;;4276022;33;20117;-64
2021/11/08 16:06:30;;;;;;;10.60;7.90;;;;;;;;;;4288315;33;20115;-64
2021/11/08 16:08:56;;;;;;;17.25;13.50;;;;;;;;;;4289367;33;20127;-63
2021/11/08 16:11:22;;;;;;;7.43;5.93;;;;;;;;;;4276489;33;20134;-63
2021/11/08 16:13:48;;;;;;;7.07;5.82;;;;;;;;;;4289469;33;20106;-63
2021/11/08 16:16:16;;;;;;;5.43;4.60;;;;;;;;;;4276203;33;20084;-64
2021/11/08 16:18:41;;;;;;;15.30;9.88;;;;;;;;;;4264865;33;20222;-64
2021/11/08 16:21:08;;;;;;;11.50;8.98;;;;;;;;;;4290033;33;20127;-64
2021/11/08 16:23:34;;;;;;;7.82;5.55;;;;;;;;;;4276309;33;20112;-64
2021/11/08 16:26:00;;;;;;;6.47;5.40;;;;;;;;;;4289794;33;20199;-64
2021/11/08 16:28:26;;;;;;;10.55;7.18;;;;;;;;;;4289189;33;20119;-63
2021/11/08 16:30:57;;;;;;;6.37;5.30;;;;;;;;;;4289846;33;20099;-63
2021/11/08 16:33:34;;;;;;;7.50;5.12;;;;;;;;;;4289393;33;20127;-63
2021/11/08 16:36:01;;;;;;;22.10;15.98;;;;;;;;;;4289755;33;20131;-60
2021/11/08 16:38:27;;;;;;;7.50;5.28;;;;;;;;;;4287439;33;20536;-61
2021/11/08 16:40:56;;;;;;;23.42;16.92;;;;;;;;;;4289375;33;20119;-61
2021/11/08 16:43:24;;;;;;;9.98;7.15;;;;;;;;;;4275888;33;20108;-62
2021/11/08 16:45:52;;;;;;;22.23;15.43;;;;;;;;;;4289834;33;20115;-60
2021/11/08 16:48:19;;;;;;;10.30;8.00;;;;;;;;;;4288808;33;20131;-68
2021/11/08 16:50:45;;;;;;;17.62;13.70;;;;;;;;;;4290103;33;21002;-65
2021/11/08 16:53:11;;;;;;;6.07;4.90;;;;;;;;;;4288270;33;20130;-64